BON372 FOOL-FAOR
Flight info
| Callsign | BON372 |
|---|---|
| Flight time | 4h 43m |
| Altitude | 35000 |
| Route | PILVI1S PILVI UR526 VNA UN187 ARGOL R987 UVAMO UT942 EPNON/N0447F370 UT942 UTVIN UM998 GBV UL435 ETOSA UZ10 PEDIL/N0364F230 Q19 AVAGO AVAGO1C |
| Aircraft | A320/M-SDE3FGHIRWY/LB1 |
Departure
| Time | 2026-04-24 15:13 |
|---|---|
| Airport | Libreville Leon M'ba International Airport (FOOL) |
Arrival
| Time | 2026-04-24 19:57 |
|---|---|
| Airport | O.R. Tambo International Airport (FAOR) |
| Time | Latitude | Longitude | Altitude | Speed | Heading |
|---|---|---|---|---|---|
| 2026-04-24 14:59 | 0.45610 | 9.41143 | 33 ft | 0 kts | 16° |
| 2026-04-24 15:08 | 0.45612 | 9.41144 | 34 ft | 0 kts | 16° |
| 2026-04-24 15:08 | 0.45631 | 9.41149 | 34 ft | 7 kts | 17° |
| 2026-04-24 15:08 | 0.45691 | 9.41174 | 32 ft | 10 kts | 38° |
| 2026-04-24 15:09 | 0.45758 | 9.41159 | 34 ft | 11 kts | 340° |
| 2026-04-24 15:09 | 0.45822 | 9.41188 | 33 ft | 12 kts | 50° |
| 2026-04-24 15:09 | 0.45897 | 9.41214 | 33 ft | 13 kts | 341° |
| 2026-04-24 15:09 | 0.45982 | 9.41175 | 33 ft | 14 kts | 335° |
| 2026-04-24 15:10 | 0.46073 | 9.41131 | 33 ft | 15 kts | 334° |
| 2026-04-24 15:10 | 0.46167 | 9.41084 | 35 ft | 15 kts | 334° |
| 2026-04-24 15:10 | 0.46265 | 9.41038 | 35 ft | 16 kts | 334° |
| 2026-04-24 15:10 | 0.46375 | 9.40983 | 36 ft | 21 kts | 333° |
| 2026-04-24 15:11 | 0.46511 | 9.40921 | 37 ft | 22 kts | 334° |
| 2026-04-24 15:11 | 0.46652 | 9.40853 | 36 ft | 23 kts | 334° |
| 2026-04-24 15:11 | 0.46802 | 9.40780 | 36 ft | 25 kts | 334° |
| 2026-04-24 15:11 | 0.46955 | 9.40705 | 34 ft | 22 kts | 330° |
| 2026-04-24 15:12 | 0.47028 | 9.40623 | 34 ft | 13 kts | 333° |
| 2026-04-24 15:12 | 0.47036 | 9.40667 | 34 ft | 0 kts | 154° |
| 2026-04-24 15:12 | 0.47030 | 9.40670 | 34 ft | 7 kts | 154° |
| 2026-04-24 15:13 | 0.46778 | 9.40791 | 35 ft | 75 kts | 154° |
| 2026-04-24 15:13 | 0.46129 | 9.41105 | 34 ft | 130 kts | 154° |
| 2026-04-24 15:13 | 0.45179 | 9.41563 | 51 ft | 171 kts | 152° |
| 2026-04-24 15:13 | 0.44102 | 9.42060 | 661 ft | 170 kts | 158° |
| 2026-04-24 15:14 | 0.42933 | 9.42270 | 1257 ft | 172 kts | 180° |
| 2026-04-24 15:14 | 0.41778 | 9.42008 | 1880 ft | 172 kts | 210° |
| 2026-04-24 15:14 | 0.40952 | 9.41156 | 2386 ft | 173 kts | 236° |
| 2026-04-24 15:14 | 0.40330 | 9.40147 | 2858 ft | 172 kts | 235° |
| 2026-04-24 15:15 | 0.39698 | 9.39127 | 3267 ft | 176 kts | 236° |
| 2026-04-24 15:15 | 0.39012 | 9.38026 | 3419 ft | 197 kts | 236° |
| 2026-04-24 15:15 | 0.38245 | 9.36799 | 3543 ft | 220 kts | 236° |
| 2026-04-24 15:15 | 0.37389 | 9.35432 | 3757 ft | 244 kts | 236° |
| 2026-04-24 15:16 | 0.36451 | 9.33931 | 4078 ft | 263 kts | 237° |
| 2026-04-24 15:16 | 0.35468 | 9.32355 | 4718 ft | 270 kts | 237° |
| 2026-04-24 15:16 | 0.34372 | 9.30830 | 5419 ft | 272 kts | 221° |
| 2026-04-24 15:16 | 0.32706 | 9.29945 | 5747 ft | 275 kts | 189° |
| 2026-04-24 15:17 | 0.30816 | 9.30167 | 6291 ft | 280 kts | 157° |
| 2026-04-24 15:17 | 0.29106 | 9.31118 | 6935 ft | 283 kts | 146° |
| 2026-04-24 15:17 | 0.27521 | 9.32301 | 7588 ft | 287 kts | 142° |
| 2026-04-24 15:17 | 0.25957 | 9.33558 | 8226 ft | 290 kts | 141° |
| 2026-04-24 15:18 | 0.24365 | 9.34821 | 8871 ft | 293 kts | 142° |
| 2026-04-24 15:18 | 0.22734 | 9.36066 | 9493 ft | 297 kts | 143° |
| 2026-04-24 15:18 | 0.21055 | 9.37298 | 10024 ft | 304 kts | 144° |
| 2026-04-24 15:18 | 0.19275 | 9.38567 | 10145 ft | 325 kts | 145° |
| 2026-04-24 15:19 | 0.17371 | 9.39900 | 10281 ft | 343 kts | 145° |
| 2026-04-24 15:19 | 0.15387 | 9.41279 | 10686 ft | 350 kts | 145° |
| 2026-04-24 15:19 | 0.13283 | 9.42525 | 11184 ft | 353 kts | 155° |
| 2026-04-24 15:19 | 0.11039 | 9.43547 | 11705 ft | 356 kts | 155° |
| 2026-04-24 15:20 | 0.08774 | 9.44579 | 12222 ft | 359 kts | 155° |
| 2026-04-24 15:20 | 0.06493 | 9.45620 | 12736 ft | 362 kts | 155° |
| 2026-04-24 15:20 | 0.04195 | 9.46671 | 13240 ft | 365 kts | 155° |
| 2026-04-24 15:20 | 0.01882 | 9.47732 | 13721 ft | 368 kts | 155° |
| 2026-04-24 15:21 | -0.00451 | 9.48805 | 14140 ft | 371 kts | 155° |
| 2026-04-24 15:21 | -0.02802 | 9.49887 | 14571 ft | 373 kts | 155° |
| 2026-04-24 15:21 | -0.05169 | 9.50975 | 15007 ft | 376 kts | 155° |
| 2026-04-24 15:21 | -0.07552 | 9.52071 | 15453 ft | 378 kts | 155° |
| 2026-04-24 15:22 | -0.09947 | 9.53172 | 15884 ft | 380 kts | 155° |
| 2026-04-24 15:22 | -0.12361 | 9.54280 | 16301 ft | 383 kts | 155° |
| 2026-04-24 15:22 | -0.14793 | 9.55396 | 16718 ft | 386 kts | 155° |
| 2026-04-24 15:23 | -0.19708 | 9.57654 | 17544 ft | 391 kts | 155° |
| 2026-04-24 15:23 | -0.24677 | 9.59937 | 18353 ft | 396 kts | 155° |
| 2026-04-24 15:23 | -0.27187 | 9.61091 | 18702 ft | 398 kts | 155° |
| 2026-04-24 15:24 | -0.34767 | 9.64567 | 19790 ft | 404 kts | 155° |
| 2026-04-24 15:25 | -0.39067 | 9.66538 | 20401 ft | 407 kts | 155° |
| 2026-04-24 15:25 | -0.45086 | 9.69298 | 21206 ft | 412 kts | 155° |
| 2026-04-24 15:26 | -0.52958 | 9.72917 | 22215 ft | 418 kts | 155° |
| 2026-04-24 15:27 | -0.60937 | 9.76584 | 23167 ft | 424 kts | 155° |
| 2026-04-24 15:27 | -0.69026 | 9.80289 | 23980 ft | 429 kts | 155° |
| 2026-04-24 15:28 | -0.79932 | 9.85296 | 25028 ft | 434 kts | 155° |
| 2026-04-24 15:29 | -0.85429 | 9.87836 | 25527 ft | 437 kts | 155° |
| 2026-04-24 15:30 | -0.93736 | 9.91709 | 26248 ft | 442 kts | 155° |
| 2026-04-24 15:31 | -1.03991 | 9.96474 | 27133 ft | 446 kts | 155° |
| 2026-04-24 15:32 | -1.16279 | 10.02183 | 28168 ft | 452 kts | 155° |
| 2026-04-24 15:33 | -1.27650 | 10.07497 | 29495 ft | 451 kts | 154° |
| 2026-04-24 15:33 | -1.36041 | 10.11641 | 30414 ft | 450 kts | 153° |
| 2026-04-24 15:34 | -1.41634 | 10.14412 | 31042 ft | 448 kts | 153° |
| 2026-04-24 15:35 | -1.49991 | 10.18519 | 32001 ft | 445 kts | 153° |
| 2026-04-24 15:35 | -1.55545 | 10.21239 | 32629 ft | 444 kts | 153° |
| 2026-04-24 15:35 | -1.58318 | 10.22595 | 32949 ft | 443 kts | 153° |
| 2026-04-24 15:36 | -1.61083 | 10.23950 | 33262 ft | 443 kts | 153° |
| 2026-04-24 15:36 | -1.66606 | 10.26670 | 33827 ft | 442 kts | 153° |
| 2026-04-24 15:36 | -1.69362 | 10.28025 | 34080 ft | 441 kts | 153° |
| 2026-04-24 15:37 | -1.72112 | 10.29376 | 34341 ft | 440 kts | 153° |
| 2026-04-24 15:37 | -1.73931 | 10.30268 | 34538 ft | 439 kts | 153° |
| 2026-04-24 15:37 | -1.76667 | 10.31611 | 34790 ft | 438 kts | 153° |
| 2026-04-24 15:37 | -1.79401 | 10.32952 | 34854 ft | 439 kts | 153° |
| 2026-04-24 15:38 | -1.84933 | 10.35651 | 34867 ft | 446 kts | 154° |
| 2026-04-24 15:38 | -1.90651 | 10.38106 | 34865 ft | 447 kts | 156° |
| 2026-04-24 15:39 | -1.96445 | 10.40374 | 34863 ft | 447 kts | 156° |
| 2026-04-24 15:39 | -2.02222 | 10.42673 | 34865 ft | 447 kts | 156° |
| 2026-04-24 15:40 | -2.07974 | 10.45026 | 34868 ft | 447 kts | 155° |
| 2026-04-24 15:40 | -2.13726 | 10.47398 | 34872 ft | 447 kts | 155° |
| 2026-04-24 15:41 | -2.19482 | 10.49771 | 34876 ft | 447 kts | 155° |
| 2026-04-24 15:41 | -2.25239 | 10.52133 | 34875 ft | 447 kts | 155° |
| 2026-04-24 15:42 | -2.31003 | 10.54492 | 34872 ft | 448 kts | 155° |
| 2026-04-24 15:42 | -2.36767 | 10.56858 | 34870 ft | 448 kts | 155° |
| 2026-04-24 15:43 | -2.42529 | 10.59225 | 34862 ft | 448 kts | 156° |
| 2026-04-24 15:43 | -2.48302 | 10.61597 | 34865 ft | 448 kts | 156° |
| 2026-04-24 15:44 | -2.54073 | 10.63967 | 34871 ft | 449 kts | 156° |
| 2026-04-24 15:44 | -2.59849 | 10.66336 | 34870 ft | 449 kts | 156° |
| 2026-04-24 15:45 | -2.65630 | 10.68702 | 34872 ft | 449 kts | 156° |
| 2026-04-24 15:45 | -2.71403 | 10.71072 | 34865 ft | 448 kts | 156° |
| 2026-04-24 15:46 | -2.77164 | 10.73445 | 34871 ft | 448 kts | 156° |
| 2026-04-24 15:46 | -2.82929 | 10.75814 | 34869 ft | 448 kts | 156° |
| 2026-04-24 15:47 | -2.88689 | 10.78176 | 34870 ft | 448 kts | 156° |
| 2026-04-24 15:47 | -2.94452 | 10.80543 | 34867 ft | 448 kts | 156° |
| 2026-04-24 15:48 | -3.00211 | 10.82912 | 34863 ft | 447 kts | 156° |
| 2026-04-24 15:48 | -3.05968 | 10.85281 | 34867 ft | 447 kts | 156° |
| 2026-04-24 15:49 | -3.11721 | 10.87643 | 34873 ft | 447 kts | 156° |
| 2026-04-24 15:49 | -3.17436 | 10.89992 | 34875 ft | 447 kts | 156° |
| 2026-04-24 15:50 | -3.23223 | 10.92367 | 34873 ft | 447 kts | 156° |
| 2026-04-24 15:50 | -3.28932 | 10.94714 | 34873 ft | 447 kts | 156° |
| 2026-04-24 15:51 | -3.34681 | 10.97073 | 34875 ft | 447 kts | 156° |
| 2026-04-24 15:51 | -3.40425 | 10.99441 | 34878 ft | 446 kts | 156° |
| 2026-04-24 15:52 | -3.46156 | 11.01801 | 34879 ft | 445 kts | 156° |
| 2026-04-24 15:52 | -3.51876 | 11.04151 | 34878 ft | 444 kts | 156° |
| 2026-04-24 15:53 | -3.57599 | 11.06503 | 34877 ft | 444 kts | 156° |
| 2026-04-24 15:53 | -3.63312 | 11.08847 | 34871 ft | 444 kts | 156° |
| 2026-04-24 15:54 | -3.69020 | 11.11193 | 34866 ft | 444 kts | 156° |
| 2026-04-24 15:54 | -3.74728 | 11.13548 | 34866 ft | 444 kts | 156° |
| 2026-04-24 15:55 | -3.80434 | 11.15901 | 34867 ft | 443 kts | 156° |
| 2026-04-24 15:55 | -3.86140 | 11.18248 | 34868 ft | 443 kts | 156° |
| 2026-04-24 15:56 | -3.91847 | 11.20593 | 34870 ft | 443 kts | 156° |
| 2026-04-24 15:56 | -3.97552 | 11.22938 | 34870 ft | 443 kts | 156° |
| 2026-04-24 15:57 | -4.03252 | 11.25289 | 34868 ft | 443 kts | 156° |
| 2026-04-24 15:57 | -4.08950 | 11.27635 | 34868 ft | 443 kts | 156° |
| 2026-04-24 15:58 | -4.14651 | 11.29980 | 34870 ft | 443 kts | 156° |
| 2026-04-24 15:58 | -4.20344 | 11.32328 | 34864 ft | 443 kts | 156° |
| 2026-04-24 15:59 | -4.26043 | 11.34672 | 34864 ft | 443 kts | 156° |
| 2026-04-24 15:59 | -4.31737 | 11.37021 | 34865 ft | 443 kts | 156° |
| 2026-04-24 16:00 | -4.37433 | 11.39373 | 34866 ft | 442 kts | 156° |
| 2026-04-24 16:00 | -4.43126 | 11.41716 | 34867 ft | 442 kts | 156° |
| 2026-04-24 16:01 | -4.48820 | 11.44061 | 34865 ft | 442 kts | 156° |
| 2026-04-24 16:01 | -4.54510 | 11.46411 | 34861 ft | 442 kts | 156° |
| 2026-04-24 16:02 | -4.60200 | 11.48760 | 34858 ft | 442 kts | 156° |
| 2026-04-24 16:02 | -4.65899 | 11.51108 | 34858 ft | 443 kts | 156° |
| 2026-04-24 16:03 | -4.71590 | 11.53458 | 34860 ft | 443 kts | 156° |
| 2026-04-24 16:03 | -4.77285 | 11.55809 | 34859 ft | 443 kts | 156° |
| 2026-04-24 16:04 | -4.82978 | 11.58155 | 34856 ft | 443 kts | 156° |
| 2026-04-24 16:04 | -4.88676 | 11.60500 | 34858 ft | 442 kts | 156° |
| 2026-04-24 16:05 | -4.97214 | 11.64026 | 34857 ft | 442 kts | 156° |
| 2026-04-24 16:06 | -5.05746 | 11.67562 | 34858 ft | 442 kts | 156° |
| 2026-04-24 16:07 | -5.14243 | 11.71066 | 34859 ft | 442 kts | 156° |
| 2026-04-24 16:07 | -5.22783 | 11.74582 | 34868 ft | 443 kts | 156° |
| 2026-04-24 16:08 | -5.31331 | 11.78103 | 34860 ft | 442 kts | 156° |
| 2026-04-24 16:09 | -5.39867 | 11.81623 | 34858 ft | 442 kts | 156° |
| 2026-04-24 16:09 | -5.45551 | 11.83965 | 34856 ft | 442 kts | 156° |
| 2026-04-24 16:11 | -5.59780 | 11.89838 | 34858 ft | 442 kts | 156° |
| 2026-04-24 16:11 | -5.65470 | 11.92189 | 34860 ft | 442 kts | 156° |
| 2026-04-24 16:12 | -5.74011 | 11.95709 | 34859 ft | 442 kts | 156° |
| 2026-04-24 16:13 | -5.82545 | 11.99237 | 34862 ft | 442 kts | 155° |
| 2026-04-24 16:14 | -5.93888 | 12.03921 | 34866 ft | 442 kts | 156° |
| 2026-04-24 16:14 | -6.02434 | 12.07446 | 34861 ft | 443 kts | 156° |
| 2026-04-24 16:15 | -6.10985 | 12.10983 | 34860 ft | 443 kts | 156° |
| 2026-04-24 16:16 | -6.19543 | 12.14515 | 34859 ft | 443 kts | 156° |
| 2026-04-24 16:17 | -6.33805 | 12.20425 | 34859 ft | 444 kts | 156° |
| 2026-04-24 16:18 | -6.45246 | 12.25156 | 34855 ft | 445 kts | 156° |
| 2026-04-24 16:19 | -6.53840 | 12.28718 | 34856 ft | 446 kts | 156° |
| 2026-04-24 16:20 | -6.62443 | 12.32274 | 34862 ft | 446 kts | 156° |
| 2026-04-24 16:20 | -6.71054 | 12.35838 | 34861 ft | 446 kts | 156° |
| 2026-04-24 16:21 | -6.79660 | 12.39410 | 34860 ft | 446 kts | 156° |
| 2026-04-24 16:22 | -6.85402 | 12.41792 | 34857 ft | 446 kts | 156° |
| 2026-04-24 16:22 | -6.93079 | 12.44988 | 34855 ft | 446 kts | 156° |
| 2026-04-24 16:23 | -6.98783 | 12.47354 | 34858 ft | 446 kts | 156° |
| 2026-04-24 16:24 | -7.07406 | 12.50914 | 34865 ft | 447 kts | 156° |
| 2026-04-24 16:24 | -7.13146 | 12.53295 | 34867 ft | 447 kts | 156° |
| 2026-04-24 16:25 | -7.18901 | 12.55684 | 34867 ft | 446 kts | 156° |
| 2026-04-24 16:25 | -7.24644 | 12.58066 | 34867 ft | 446 kts | 156° |
| 2026-04-24 16:26 | -7.33291 | 12.61671 | 34867 ft | 446 kts | 156° |
| 2026-04-24 16:27 | -7.41869 | 12.65224 | 34874 ft | 446 kts | 156° |
| 2026-04-24 16:27 | -7.47609 | 12.67597 | 34873 ft | 445 kts | 156° |
| 2026-04-24 16:28 | -7.53373 | 12.69997 | 34877 ft | 445 kts | 156° |
| 2026-04-24 16:28 | -7.61902 | 12.73553 | 34875 ft | 444 kts | 156° |
| 2026-04-24 16:29 | -7.67612 | 12.75926 | 34872 ft | 444 kts | 156° |
| 2026-04-24 16:30 | -7.79008 | 12.80667 | 34879 ft | 443 kts | 156° |
| 2026-04-24 16:30 | -7.84693 | 12.83040 | 34878 ft | 442 kts | 156° |
| 2026-04-24 16:31 | -7.90375 | 12.85409 | 34877 ft | 442 kts | 156° |
| 2026-04-24 16:31 | -7.96055 | 12.87780 | 34874 ft | 442 kts | 156° |
| 2026-04-24 16:32 | -8.01734 | 12.90142 | 34868 ft | 441 kts | 156° |
| 2026-04-24 16:32 | -8.07412 | 12.92500 | 34861 ft | 441 kts | 156° |
| 2026-04-24 16:33 | -8.13089 | 12.94864 | 34860 ft | 441 kts | 156° |
| 2026-04-24 16:33 | -8.18754 | 12.97236 | 34857 ft | 441 kts | 156° |
| 2026-04-24 16:34 | -8.24418 | 12.99599 | 34857 ft | 441 kts | 156° |
| 2026-04-24 16:34 | -8.30089 | 13.01964 | 34858 ft | 441 kts | 156° |
| 2026-04-24 16:35 | -8.35756 | 13.04324 | 34857 ft | 441 kts | 156° |
| 2026-04-24 16:35 | -8.41429 | 13.06697 | 34861 ft | 441 kts | 156° |
| 2026-04-24 16:36 | -8.47130 | 13.08985 | 34858 ft | 442 kts | 160° |
| 2026-04-24 16:36 | -8.52990 | 13.10860 | 34852 ft | 442 kts | 161° |
| 2026-04-24 16:37 | -8.58853 | 13.12623 | 34851 ft | 443 kts | 162° |
| 2026-04-24 16:37 | -8.64753 | 13.14410 | 34852 ft | 443 kts | 161° |
| 2026-04-24 16:38 | -8.70648 | 13.16240 | 34854 ft | 443 kts | 161° |
| 2026-04-24 16:38 | -8.76521 | 13.18068 | 34853 ft | 443 kts | 161° |
| 2026-04-24 16:39 | -8.82425 | 13.19899 | 34852 ft | 442 kts | 161° |
| 2026-04-24 16:39 | -8.88309 | 13.21722 | 34846 ft | 443 kts | 161° |
| 2026-04-24 16:40 | -8.94201 | 13.23566 | 34847 ft | 443 kts | 161° |
| 2026-04-24 16:40 | -9.00082 | 13.25415 | 34852 ft | 443 kts | 161° |
| 2026-04-24 16:41 | -9.05977 | 13.27265 | 34859 ft | 443 kts | 161° |
| 2026-04-24 16:41 | -9.11870 | 13.29109 | 34866 ft | 444 kts | 161° |
| 2026-04-24 16:42 | -9.17767 | 13.30958 | 34875 ft | 444 kts | 161° |
| 2026-04-24 16:42 | -9.23667 | 13.32807 | 34872 ft | 444 kts | 161° |
| 2026-04-24 16:43 | -9.29562 | 13.34656 | 34870 ft | 444 kts | 161° |
| 2026-04-24 16:43 | -9.35472 | 13.36511 | 34870 ft | 444 kts | 161° |
| 2026-04-24 16:44 | -9.41379 | 13.38368 | 34871 ft | 445 kts | 161° |
| 2026-04-24 16:44 | -9.47289 | 13.40228 | 34873 ft | 445 kts | 161° |
| 2026-04-24 16:45 | -9.53201 | 13.42085 | 34875 ft | 445 kts | 161° |
| 2026-04-24 16:45 | -9.59084 | 13.43932 | 34878 ft | 445 kts | 161° |
| 2026-04-24 16:46 | -9.65000 | 13.45787 | 34881 ft | 445 kts | 161° |
| 2026-04-24 16:46 | -9.70923 | 13.47647 | 34881 ft | 445 kts | 161° |
| 2026-04-24 16:47 | -9.76843 | 13.49511 | 34885 ft | 445 kts | 161° |
| 2026-04-24 16:47 | -9.82763 | 13.51377 | 34881 ft | 445 kts | 161° |
| 2026-04-24 16:48 | -9.88674 | 13.53241 | 34882 ft | 445 kts | 161° |
| 2026-04-24 16:48 | -9.94583 | 13.55102 | 34874 ft | 445 kts | 161° |
| 2026-04-24 16:49 | -10.00500 | 13.56969 | 34875 ft | 445 kts | 161° |
| 2026-04-24 16:49 | -10.06416 | 13.58831 | 34875 ft | 445 kts | 161° |
| 2026-04-24 16:50 | -10.12341 | 13.60696 | 34876 ft | 446 kts | 161° |
| 2026-04-24 16:50 | -10.18265 | 13.62566 | 34872 ft | 446 kts | 161° |
| 2026-04-24 16:51 | -10.24187 | 13.64449 | 34877 ft | 446 kts | 161° |
| 2026-04-24 16:51 | -10.30110 | 13.66332 | 34871 ft | 446 kts | 161° |
| 2026-04-24 16:52 | -10.36037 | 13.68213 | 34865 ft | 446 kts | 161° |
| 2026-04-24 16:52 | -10.41974 | 13.70095 | 34867 ft | 447 kts | 161° |
| 2026-04-24 16:53 | -10.47900 | 13.71977 | 34871 ft | 446 kts | 161° |
| 2026-04-24 16:53 | -10.53791 | 13.73845 | 34872 ft | 447 kts | 161° |
| 2026-04-24 16:54 | -10.59729 | 13.75724 | 34877 ft | 447 kts | 161° |
| 2026-04-24 16:54 | -10.65667 | 13.77604 | 34875 ft | 447 kts | 161° |
| 2026-04-24 16:55 | -10.71599 | 13.79491 | 34884 ft | 447 kts | 161° |
| 2026-04-24 16:55 | -10.77376 | 13.81762 | 34882 ft | 445 kts | 149° |
| 2026-04-24 16:56 | -10.82289 | 13.85565 | 34875 ft | 444 kts | 139° |
| 2026-04-24 16:56 | -10.86994 | 13.89653 | 34870 ft | 445 kts | 139° |
| 2026-04-24 16:57 | -10.91711 | 13.93745 | 34878 ft | 446 kts | 139° |
| 2026-04-24 16:57 | -10.96432 | 13.97850 | 34881 ft | 446 kts | 139° |
| 2026-04-24 16:58 | -11.01159 | 14.01956 | 34893 ft | 447 kts | 139° |
| 2026-04-24 16:58 | -11.05890 | 14.06059 | 34899 ft | 447 kts | 139° |
| 2026-04-24 16:59 | -11.10616 | 14.10176 | 34921 ft | 447 kts | 139° |
| 2026-04-24 17:00 | -11.17698 | 14.16348 | 34922 ft | 447 kts | 139° |
| 2026-04-24 17:00 | -11.24788 | 14.22521 | 34941 ft | 447 kts | 139° |
| 2026-04-24 17:01 | -11.31878 | 14.28694 | 34947 ft | 447 kts | 139° |
| 2026-04-24 17:02 | -11.38951 | 14.34869 | 34949 ft | 446 kts | 139° |
| 2026-04-24 17:02 | -11.43658 | 14.38983 | 34961 ft | 446 kts | 139° |
| 2026-04-24 17:03 | -11.50727 | 14.45146 | 34957 ft | 446 kts | 139° |
| 2026-04-24 17:04 | -11.55436 | 14.49267 | 34963 ft | 446 kts | 139° |
| 2026-04-24 17:04 | -11.62477 | 14.55435 | 34964 ft | 446 kts | 139° |
| 2026-04-24 17:05 | -11.67200 | 14.59561 | 34966 ft | 446 kts | 139° |
| 2026-04-24 17:06 | -11.74275 | 14.65731 | 34961 ft | 446 kts | 139° |
| 2026-04-24 17:06 | -11.80543 | 14.71229 | 34965 ft | 447 kts | 139° |
| 2026-04-24 17:07 | -11.85256 | 14.75368 | 34970 ft | 447 kts | 139° |
| 2026-04-24 17:08 | -11.94694 | 14.83649 | 34975 ft | 447 kts | 139° |
| 2026-04-24 17:08 | -11.99412 | 14.87789 | 34975 ft | 447 kts | 139° |
| 2026-04-24 17:09 | -12.08855 | 14.96076 | 34965 ft | 448 kts | 139° |
| 2026-04-24 17:10 | -12.18310 | 15.04391 | 34972 ft | 448 kts | 139° |
| 2026-04-24 17:12 | -12.37199 | 15.21021 | 34964 ft | 448 kts | 140° |
| 2026-04-24 18:54 | -22.51427 | 24.12521 | 37160 ft | 482 kts | 147° |
| 2026-04-24 18:55 | -22.59307 | 24.19283 | 37164 ft | 482 kts | 147° |
| 2026-04-24 18:56 | -22.64555 | 24.23799 | 37164 ft | 482 kts | 147° |
| 2026-04-24 18:56 | -22.69816 | 24.28332 | 37169 ft | 482 kts | 147° |
| 2026-04-24 18:57 | -22.75067 | 24.32858 | 37192 ft | 483 kts | 147° |
| 2026-04-24 18:57 | -22.80322 | 24.37375 | 37183 ft | 483 kts | 147° |
| 2026-04-24 18:58 | -22.85581 | 24.41913 | 37182 ft | 483 kts | 147° |
| 2026-04-24 18:58 | -22.90838 | 24.46458 | 37178 ft | 483 kts | 147° |
| 2026-04-24 18:59 | -22.96092 | 24.51004 | 37180 ft | 483 kts | 147° |
| 2026-04-24 18:59 | -23.01352 | 24.55554 | 37200 ft | 484 kts | 147° |
| 2026-04-24 19:00 | -23.05761 | 24.59371 | 37187 ft | 484 kts | 147° |
| 2026-04-24 19:00 | -23.11873 | 24.64663 | 37195 ft | 483 kts | 147° |
| 2026-04-24 19:01 | -23.17125 | 24.69229 | 37191 ft | 484 kts | 147° |
| 2026-04-24 19:01 | -23.22377 | 24.73801 | 37198 ft | 484 kts | 147° |
| 2026-04-24 19:02 | -23.26777 | 24.77626 | 37208 ft | 483 kts | 147° |
| 2026-04-24 19:02 | -23.32878 | 24.82940 | 37210 ft | 483 kts | 146° |
| 2026-04-24 19:03 | -23.38126 | 24.87517 | 37205 ft | 483 kts | 147° |
| 2026-04-24 19:03 | -23.43374 | 24.92086 | 37209 ft | 483 kts | 147° |
| 2026-04-24 19:04 | -23.48620 | 24.96671 | 37211 ft | 483 kts | 146° |
| 2026-04-24 19:04 | -23.53861 | 25.01256 | 37233 ft | 483 kts | 146° |
| 2026-04-24 19:05 | -23.59099 | 25.05846 | 37219 ft | 483 kts | 146° |
| 2026-04-24 19:05 | -23.64339 | 25.10440 | 37220 ft | 483 kts | 146° |
| 2026-04-24 19:06 | -23.69577 | 25.15042 | 37226 ft | 483 kts | 146° |
| 2026-04-24 19:06 | -23.74818 | 25.19647 | 37228 ft | 484 kts | 146° |
| 2026-04-24 19:07 | -23.80054 | 25.24253 | 37245 ft | 484 kts | 146° |
| 2026-04-24 19:07 | -23.84445 | 25.28114 | 37246 ft | 483 kts | 146° |
| 2026-04-24 19:08 | -23.90572 | 25.33507 | 37237 ft | 483 kts | 146° |
| 2026-04-24 19:08 | -23.95795 | 25.38118 | 37240 ft | 483 kts | 146° |
| 2026-04-24 19:09 | -24.00145 | 25.41953 | 37247 ft | 484 kts | 146° |
| 2026-04-24 19:09 | -24.05383 | 25.46580 | 37267 ft | 484 kts | 146° |
| 2026-04-24 19:10 | -24.10613 | 25.51218 | 37253 ft | 484 kts | 146° |
| 2026-04-24 19:10 | -24.15844 | 25.55854 | 37260 ft | 484 kts | 146° |
| 2026-04-24 19:11 | -24.21074 | 25.60490 | 37259 ft | 484 kts | 146° |
| 2026-04-24 19:11 | -24.26307 | 25.65126 | 37282 ft | 484 kts | 146° |
| 2026-04-24 19:12 | -24.31543 | 25.69763 | 37281 ft | 484 kts | 146° |
| 2026-04-24 19:12 | -24.36768 | 25.74417 | 37282 ft | 484 kts | 146° |
| 2026-04-24 19:13 | -24.41149 | 25.78326 | 37285 ft | 484 kts | 146° |
| 2026-04-24 19:13 | -24.47222 | 25.83738 | 37291 ft | 484 kts | 146° |
| 2026-04-24 19:14 | -24.52450 | 25.88399 | 37315 ft | 484 kts | 146° |
| 2026-04-24 19:14 | -24.57714 | 25.93097 | 37303 ft | 484 kts | 145° |
| 2026-04-24 19:15 | -24.62897 | 25.97738 | 37282 ft | 484 kts | 145° |
| 2026-04-24 19:15 | -24.68119 | 26.02410 | 37282 ft | 484 kts | 146° |
| 2026-04-24 19:16 | -24.76011 | 26.09347 | 37305 ft | 484 kts | 147° |
| 2026-04-24 19:16 | -24.81405 | 26.13854 | 37297 ft | 483 kts | 148° |
| 2026-04-24 19:17 | -24.86764 | 26.18326 | 37298 ft | 483 kts | 147° |
| 2026-04-24 19:17 | -24.92103 | 26.22833 | 37298 ft | 483 kts | 147° |
| 2026-04-24 19:18 | -24.97431 | 26.27360 | 37290 ft | 483 kts | 147° |
| 2026-04-24 19:18 | -25.02722 | 26.31869 | 37315 ft | 484 kts | 147° |
| 2026-04-24 19:19 | -25.08051 | 26.36407 | 37312 ft | 484 kts | 147° |
| 2026-04-24 19:19 | -25.13385 | 26.40930 | 37316 ft | 484 kts | 147° |
| 2026-04-24 19:20 | -25.18643 | 26.45582 | 37303 ft | 488 kts | 137° |
| 2026-04-24 19:20 | -25.20738 | 26.48550 | 37313 ft | 493 kts | 124° |
| 2026-04-24 19:20 | -25.22513 | 26.51801 | 37307 ft | 494 kts | 123° |
| 2026-04-24 19:21 | -25.26023 | 26.58389 | 37306 ft | 495 kts | 122° |
| 2026-04-24 19:21 | -25.29486 | 26.64960 | 37311 ft | 495 kts | 122° |
| 2026-04-24 19:22 | -25.32963 | 26.71529 | 37309 ft | 495 kts | 123° |
| 2026-04-24 19:22 | -25.36456 | 26.78099 | 37316 ft | 496 kts | 123° |
| 2026-04-24 19:23 | -25.39946 | 26.84673 | 37317 ft | 496 kts | 122° |
| 2026-04-24 19:23 | -25.43437 | 26.91252 | 37340 ft | 496 kts | 122° |
| 2026-04-24 19:24 | -25.46917 | 26.97827 | 36890 ft | 495 kts | 122° |
| 2026-04-24 19:24 | -25.48642 | 27.01082 | 36255 ft | 497 kts | 122° |
| 2026-04-24 19:24 | -25.50406 | 27.04379 | 35624 ft | 499 kts | 122° |
| 2026-04-24 19:25 | -25.52187 | 27.07682 | 35035 ft | 500 kts | 122° |
| 2026-04-24 19:25 | -25.53923 | 27.10886 | 34610 ft | 497 kts | 122° |
| 2026-04-24 19:25 | -25.55579 | 27.13931 | 34204 ft | 495 kts | 122° |
| 2026-04-24 19:25 | -25.57118 | 27.16769 | 33787 ft | 492 kts | 122° |
| 2026-04-24 19:26 | -25.58756 | 27.19802 | 33343 ft | 488 kts | 122° |
| 2026-04-24 19:26 | -25.60494 | 27.23042 | 32911 ft | 484 kts | 122° |
| 2026-04-24 19:26 | -25.62203 | 27.26236 | 32510 ft | 479 kts | 122° |
| 2026-04-24 19:26 | -25.63888 | 27.29384 | 32110 ft | 473 kts | 122° |
| 2026-04-24 19:27 | -25.65561 | 27.32510 | 31723 ft | 468 kts | 122° |
| 2026-04-24 19:27 | -25.67213 | 27.35588 | 31350 ft | 463 kts | 122° |
| 2026-04-24 19:27 | -25.68869 | 27.38668 | 30534 ft | 469 kts | 122° |
| 2026-04-24 19:27 | -25.70542 | 27.41786 | 29795 ft | 470 kts | 122° |
| 2026-04-24 19:28 | -25.72203 | 27.44893 | 29227 ft | 467 kts | 122° |
| 2026-04-24 19:28 | -25.73876 | 27.47967 | 28668 ft | 463 kts | 122° |
| 2026-04-24 19:28 | -25.75558 | 27.50986 | 28125 ft | 459 kts | 123° |
| 2026-04-24 19:28 | -25.77251 | 27.53977 | 27592 ft | 455 kts | 123° |
| 2026-04-24 19:29 | -25.80603 | 27.59869 | 26582 ft | 448 kts | 123° |
| 2026-04-24 19:29 | -25.82251 | 27.62786 | 26119 ft | 444 kts | 123° |
| 2026-04-24 19:29 | -25.83870 | 27.65678 | 25654 ft | 441 kts | 122° |
| 2026-04-24 19:30 | -25.85479 | 27.68568 | 25218 ft | 436 kts | 122° |
| 2026-04-24 19:30 | -25.87064 | 27.71422 | 24804 ft | 432 kts | 122° |
| 2026-04-24 19:30 | -25.88615 | 27.74217 | 24381 ft | 429 kts | 122° |
| 2026-04-24 19:30 | -25.90179 | 27.77028 | 23964 ft | 426 kts | 122° |
| 2026-04-24 19:31 | -25.91729 | 27.79814 | 23480 ft | 423 kts | 122° |
| 2026-04-24 19:31 | -25.93291 | 27.82621 | 23004 ft | 419 kts | 122° |
| 2026-04-24 19:31 | -25.94800 | 27.85325 | 22537 ft | 416 kts | 122° |
| 2026-04-24 19:31 | -25.96314 | 27.88045 | 22075 ft | 412 kts | 122° |
| 2026-04-24 19:32 | -25.97815 | 27.90746 | 21609 ft | 409 kts | 122° |
| 2026-04-24 19:32 | -25.99297 | 27.93420 | 21006 ft | 402 kts | 122° |
| 2026-04-24 19:32 | -26.00756 | 27.96046 | 20174 ft | 397 kts | 122° |
| 2026-04-24 19:32 | -26.02195 | 27.98638 | 19363 ft | 391 kts | 122° |
| 2026-04-24 19:33 | -26.03608 | 28.01193 | 18640 ft | 385 kts | 122° |
| 2026-04-24 19:33 | -26.04989 | 28.03691 | 18012 ft | 373 kts | 122° |
| 2026-04-24 19:33 | -26.06360 | 28.06105 | 17270 ft | 365 kts | 128° |
| 2026-04-24 19:33 | -26.08140 | 28.08066 | 16535 ft | 357 kts | 147° |
| 2026-04-24 19:34 | -26.10332 | 28.09258 | 15788 ft | 350 kts | 166° |
| 2026-04-24 19:34 | -26.12711 | 28.09693 | 15012 ft | 344 kts | 179° |
| 2026-04-24 19:34 | -26.15073 | 28.09488 | 14282 ft | 338 kts | 196° |
| 2026-04-24 19:34 | -26.17282 | 28.08677 | 13479 ft | 334 kts | 202° |
| 2026-04-24 19:35 | -26.19452 | 28.07804 | 12727 ft | 331 kts | 202° |
| 2026-04-24 19:35 | -26.21615 | 28.06936 | 12430 ft | 330 kts | 202° |
| 2026-04-24 19:35 | -26.23775 | 28.06067 | 12333 ft | 330 kts | 202° |
| 2026-04-24 19:35 | -26.25946 | 28.05192 | 12364 ft | 332 kts | 202° |
| 2026-04-24 19:36 | -26.28055 | 28.04341 | 12292 ft | 312 kts | 202° |
| 2026-04-24 19:36 | -26.30033 | 28.03543 | 12167 ft | 292 kts | 202° |
| 2026-04-24 19:36 | -26.31878 | 28.02802 | 12056 ft | 273 kts | 202° |
| 2026-04-24 19:36 | -26.33613 | 28.02111 | 11905 ft | 257 kts | 202° |
| 2026-04-24 19:37 | -26.35298 | 28.01446 | 11570 ft | 251 kts | 202° |
| 2026-04-24 19:37 | -26.36930 | 28.00860 | 11168 ft | 250 kts | 195° |
| 2026-04-24 19:37 | -26.38644 | 28.00553 | 10734 ft | 250 kts | 190° |
| 2026-04-24 19:37 | -26.40365 | 28.00322 | 10307 ft | 249 kts | 189° |
| 2026-04-24 19:38 | -26.42084 | 28.00106 | 9841 ft | 247 kts | 189° |
| 2026-04-24 19:38 | -26.43782 | 27.99893 | 9438 ft | 243 kts | 189° |
| 2026-04-24 19:38 | -26.45460 | 27.99686 | 9377 ft | 245 kts | 187° |
| 2026-04-24 19:38 | -26.47168 | 27.99791 | 9156 ft | 247 kts | 172° |
| 2026-04-24 19:39 | -26.48746 | 28.00515 | 8695 ft | 247 kts | 141° |
| 2026-04-24 19:39 | -26.49893 | 28.01920 | 8221 ft | 245 kts | 115° |
| 2026-04-24 19:39 | -26.50269 | 28.03722 | 8063 ft | 240 kts | 84° |
| 2026-04-24 19:39 | -26.50038 | 28.05569 | 8008 ft | 241 kts | 76° |
| 2026-04-24 19:40 | -26.49693 | 28.07393 | 8002 ft | 241 kts | 75° |
| 2026-04-24 19:40 | -26.49251 | 28.09185 | 8003 ft | 238 kts | 62° |
| 2026-04-24 19:40 | -26.48461 | 28.10800 | 8003 ft | 236 kts | 55° |
| 2026-04-24 19:40 | -26.47596 | 28.12359 | 8002 ft | 236 kts | 54° |
| 2026-04-24 19:41 | -26.46724 | 28.13904 | 7996 ft | 236 kts | 54° |
| 2026-04-24 19:41 | -26.45705 | 28.15314 | 7993 ft | 231 kts | 36° |
| 2026-04-24 19:41 | -26.44317 | 28.16167 | 8000 ft | 226 kts | 14° |
| 2026-04-24 19:41 | -26.42808 | 28.16640 | 8007 ft | 225 kts | 12° |
| 2026-04-24 19:42 | -26.41303 | 28.17104 | 7997 ft | 226 kts | 13° |
| 2026-04-24 19:42 | -26.39825 | 28.17564 | 7992 ft | 214 kts | 13° |
| 2026-04-24 19:42 | -26.38432 | 28.17998 | 7993 ft | 204 kts | 12° |
| 2026-04-24 19:42 | -26.37075 | 28.18420 | 7998 ft | 201 kts | 12° |
| 2026-04-24 19:43 | -26.35737 | 28.18835 | 8002 ft | 199 kts | 12° |
| 2026-04-24 19:43 | -26.34417 | 28.19245 | 8004 ft | 199 kts | 12° |
| 2026-04-24 19:43 | -26.33086 | 28.19658 | 8004 ft | 199 kts | 12° |
| 2026-04-24 19:43 | -26.31753 | 28.20073 | 8013 ft | 199 kts | 12° |
| 2026-04-24 19:44 | -26.30426 | 28.20485 | 8005 ft | 199 kts | 12° |
| 2026-04-24 19:44 | -26.29089 | 28.20899 | 8018 ft | 199 kts | 12° |
| 2026-04-24 19:44 | -26.27792 | 28.21303 | 7846 ft | 190 kts | 12° |
| 2026-04-24 19:44 | -26.26542 | 28.21691 | 7624 ft | 184 kts | 12° |
| 2026-04-24 19:45 | -26.25328 | 28.22068 | 7393 ft | 175 kts | 13° |
| 2026-04-24 19:45 | -26.24190 | 28.22421 | 7180 ft | 165 kts | 13° |
| 2026-04-24 19:45 | -26.23130 | 28.22750 | 7016 ft | 153 kts | 13° |
| 2026-04-24 19:45 | -26.22130 | 28.23060 | 6807 ft | 148 kts | 14° |
| 2026-04-24 19:46 | -26.21143 | 28.23365 | 6607 ft | 147 kts | 13° |
| 2026-04-24 19:46 | -26.20164 | 28.23669 | 6386 ft | 146 kts | 14° |
| 2026-04-24 19:46 | -26.19186 | 28.23972 | 6155 ft | 146 kts | 14° |
| 2026-04-24 19:46 | -26.18211 | 28.24274 | 5938 ft | 144 kts | 15° |
| 2026-04-24 19:47 | -26.17253 | 28.24571 | 5726 ft | 142 kts | 15° |
| 2026-04-24 19:47 | -26.16297 | 28.24866 | 5542 ft | 142 kts | 14° |
| 2026-04-24 19:47 | -26.15435 | 28.25121 | 5581 ft | 128 kts | 12° |
| 2026-04-24 19:47 | -26.14526 | 28.25338 | 6124 ft | 139 kts | 9° |
| 2026-04-24 19:48 | -26.13457 | 28.25624 | 6592 ft | 166 kts | 13° |
| 2026-04-24 19:48 | -26.12352 | 28.25961 | 7365 ft | 171 kts | 14° |
| 2026-04-24 19:48 | -26.10715 | 28.28174 | 7814 ft | 224 kts | 81° |
| 2026-04-24 19:49 | -26.10736 | 28.31735 | 8005 ft | 234 kts | 90° |
| 2026-04-24 19:49 | -26.11880 | 28.35082 | 8008 ft | 244 kts | 141° |
| 2026-04-24 19:50 | -26.16654 | 28.36102 | 8003 ft | 242 kts | 193° |
| 2026-04-24 19:50 | -26.18293 | 28.35712 | 8016 ft | 241 kts | 194° |
| 2026-04-24 19:51 | -26.21567 | 28.34901 | 8012 ft | 241 kts | 194° |
| 2026-04-24 19:51 | -26.23199 | 28.34494 | 8012 ft | 241 kts | 195° |
| 2026-04-24 19:52 | -26.26449 | 28.33609 | 8016 ft | 239 kts | 204° |
| 2026-04-24 19:52 | -26.27397 | 28.33008 | 8007 ft | 235 kts | 223° |
| 2026-04-24 19:52 | -26.28590 | 28.31775 | 8008 ft | 234 kts | 229° |
| 2026-04-24 19:52 | -26.29593 | 28.30406 | 8008 ft | 233 kts | 238° |
| 2026-04-24 19:53 | -26.30506 | 28.28925 | 8006 ft | 232 kts | 239° |
| 2026-04-24 19:53 | -26.31142 | 28.27325 | 8005 ft | 224 kts | 266° |
| 2026-04-24 19:53 | -26.30930 | 28.23882 | 8004 ft | 222 kts | 285° |
| 2026-04-24 19:54 | -26.30221 | 28.22406 | 8015 ft | 218 kts | 317° |
| 2026-04-24 19:54 | -26.28986 | 28.21545 | 7959 ft | 219 kts | 342° |
| 2026-04-24 19:54 | -26.27545 | 28.21400 | 7784 ft | 222 kts | 8° |
| 2026-04-24 19:54 | -26.26044 | 28.21829 | 7524 ft | 222 kts | 14° |
| 2026-04-24 19:55 | -26.25041 | 28.22149 | 7346 ft | 221 kts | 14° |
| 2026-04-24 19:55 | -26.23114 | 28.22755 | 7012 ft | 216 kts | 14° |
| 2026-04-24 19:55 | -26.21673 | 28.23202 | 6718 ft | 215 kts | 14° |
| 2026-04-24 19:55 | -26.20263 | 28.23639 | 6411 ft | 198 kts | 15° |
| 2026-04-24 19:56 | -26.19030 | 28.24021 | 6135 ft | 170 kts | 15° |
| 2026-04-24 19:56 | -26.17957 | 28.24353 | 5889 ft | 152 kts | 15° |
| 2026-04-24 19:56 | -26.16967 | 28.24660 | 5660 ft | 145 kts | 15° |
| 2026-04-24 19:56 | -26.16012 | 28.24951 | 5538 ft | 133 kts | 14° |
| 2026-04-24 19:57 | -26.15218 | 28.25191 | 5516 ft | 105 kts | 5° |
| 2026-04-24 19:57 | -26.14720 | 28.25334 | 5504 ft | 47 kts | 358° |
| 2026-04-24 19:57 | -26.14526 | 28.25258 | 5509 ft | 15 kts | 321° |
| 2026-04-24 19:57 | -26.14492 | 28.25227 | 5510 ft | 4 kts | 321° |
| 2026-04-24 19:58 | -26.14469 | 28.25207 | 5511 ft | 4 kts | 321° |
| 2026-04-24 19:58 | -26.14435 | 28.25171 | 5512 ft | 13 kts | 317° |
| 2026-04-24 19:58 | -26.14353 | 28.25082 | 5522 ft | 15 kts | 315° |
| 2026-04-24 19:58 | -26.14287 | 28.25010 | 5534 ft | 16 kts | 315° |
| 2026-04-24 19:59 | -26.14187 | 28.24897 | 5531 ft | 25 kts | 316° |
| 2026-04-24 19:59 | -26.14075 | 28.24777 | 5531 ft | 18 kts | 316° |
| 2026-04-24 19:59 | -26.13990 | 28.24687 | 5531 ft | 16 kts | 316° |
| 2026-04-24 19:59 | -26.13910 | 28.24598 | 5532 ft | 16 kts | 316° |
| 2026-04-24 20:00 | -26.13827 | 28.24509 | 5535 ft | 16 kts | 316° |
| 2026-04-24 20:00 | -26.13753 | 28.24430 | 5542 ft | 14 kts | 316° |
| 2026-04-24 20:00 | -26.13680 | 28.24350 | 5545 ft | 15 kts | 316° |
| 2026-04-24 20:00 | -26.13599 | 28.24263 | 5542 ft | 17 kts | 316° |
| 2026-04-24 20:01 | -26.13512 | 28.24170 | 5543 ft | 18 kts | 316° |
| 2026-04-24 20:01 | -26.13442 | 28.24093 | 5548 ft | 10 kts | 315° |
| 2026-04-24 20:01 | -26.13396 | 28.24042 | 5549 ft | 9 kts | 315° |
| 2026-04-24 20:01 | -26.13346 | 28.23988 | 5549 ft | 8 kts | 315° |
| 2026-04-24 20:02 | -26.13317 | 28.23956 | 5552 ft | 10 kts | 315° |
| 2026-04-24 20:02 | -26.13230 | 28.23862 | 5547 ft | 15 kts | 315° |
| 2026-04-24 20:02 | -26.13156 | 28.23782 | 5546 ft | 12 kts | 315° |
| 2026-04-24 20:02 | -26.13128 | 28.23751 | 5548 ft | 1 kts | 315° |
| 2026-04-24 20:03 | -26.13121 | 28.23744 | 5547 ft | 0 kts | 316° |
| 2026-04-24 20:03 | -26.13116 | 28.23739 | 5545 ft | 0 kts | 317° |
| 2026-04-24 20:03 | -26.13114 | 28.23737 | 5545 ft | 1 kts | 321° |
| 2026-04-24 20:03 | -26.13108 | 28.23732 | 5545 ft | 0 kts | 322° |
| 2026-04-24 20:04 | -26.13083 | 28.23721 | 5547 ft | 5 kts | 355° |
| 2026-04-24 20:04 | -26.13055 | 28.23726 | 5546 ft | 4 kts | 12° |
| 2026-04-24 20:04 | -26.13017 | 28.23737 | 5546 ft | 7 kts | 15° |
| 2026-04-24 20:05 | -26.12964 | 28.23752 | 5546 ft | 9 kts | 15° |
| 2026-04-24 20:05 | -26.12898 | 28.23772 | 5544 ft | 11 kts | 15° |
| 2026-04-24 20:05 | -26.12846 | 28.23766 | 5546 ft | 6 kts | 318° |
| 2026-04-24 20:05 | -26.12831 | 28.23717 | 5550 ft | 10 kts | 279° |
| 2026-04-24 20:06 | -26.12822 | 28.23632 | 5546 ft | 12 kts | 276° |
| 2026-04-24 20:06 | -26.12856 | 28.23583 | 5547 ft | 7 kts | 184° |
| 2026-04-24 20:06 | -26.12899 | 28.23578 | 5550 ft | 6 kts | 186° |
| 2026-04-24 20:06 | -26.12928 | 28.23575 | 5547 ft | 1 kts | 186° |
| 2026-04-24 20:07 | -26.12929 | 28.23575 | 5547 ft | 0 kts | 186° |